Time;durP1;ratioP1;P1;durP2;ratioP2;P2;SDS_P1;SDS_P2;PMS_P1;PMS_P2;Temp;Humidity;BMP_temperature;BMP_pressure;BME280_temperature;BME280_humidity;BME280_pressure;Samples;Min_cycle;Max_cycle;Signal;HPM_P1;HPM_P2
2023/04/30 00:00:42;;;;;;;;;;;12.80;61.50;;;;;;4990948;28;87494;-39
2023/04/30 00:03:08;;;;;;;;;;;12.80;61.60;;;;;;4993691;28;89367;-39
2023/04/30 00:05:33;;;;;;;;;;;12.80;61.60;;;;;;4991064;28;87784;-40
2023/04/30 00:07:59;;;;;;;;;;;12.80;61.60;;;;;;4992952;28;88494;-39
2023/04/30 00:10:24;;;;;;;;;;;12.80;61.60;;;;;;4991660;28;89444;-39
2023/04/30 00:12:50;;;;;;;;;;;12.80;61.70;;;;;;4992988;28;86378;-39
2023/04/30 00:15:15;;;;;;;;;;;12.80;61.70;;;;;;4994509;28;87087;-39
2023/04/30 00:17:41;;;;;;;;;;;12.70;61.60;;;;;;4991456;28;87128;-39
2023/04/30 00:20:07;;;;;;;;;;;12.80;61.70;;;;;;4991269;28;90477;-39
2023/04/30 00:22:32;;;;;;;;;;;12.70;61.60;;;;;;4990420;28;89403;-39
2023/04/30 00:24:58;;;;;;;;;;;12.70;61.70;;;;;;4993820;28;87117;-39
2023/04/30 00:27:23;;;;;;;;;;;12.70;61.80;;;;;;4990511;28;87473;-39
2023/04/30 00:29:49;;;;;;;;;;;12.70;61.80;;;;;;4992967;28;88419;-38
2023/04/30 00:32:15;;;;;;;;;;;12.70;61.80;;;;;;4989686;28;87138;-39
2023/04/30 00:34:40;;;;;;;;;;;12.70;61.90;;;;;;4995122;28;89337;-39
2023/04/30 00:37:06;;;;;;;;;;;12.70;61.90;;;;;;4992195;28;86413;-39
2023/04/30 00:39:31;;;;;;;;;;;12.60;61.80;;;;;;4991811;28;88278;-39
2023/04/30 00:41:56;;;;;;;;;;;12.70;61.90;;;;;;4991753;28;89420;-39
2023/04/30 00:44:22;;;;;;;;;;;12.70;61.80;;;;;;4990425;28;88122;-39
2023/04/30 00:46:47;;;;;;;;;;;12.70;61.90;;;;;;4992972;28;90002;-39
2023/04/30 00:49:13;;;;;;;;;;;12.70;61.90;;;;;;4989896;28;87956;-38
2023/04/30 00:51:40;;;;;;;;;;;12.70;61.80;;;;;;4993378;28;87231;-39
2023/04/30 00:54:06;;;;;;;;;;;12.60;61.80;;;;;;4990106;28;87906;-39
2023/04/30 00:56:31;;;;;;;;;;;12.60;61.80;;;;;;4995191;28;89232;-38
2023/04/30 00:58:57;;;;;;;;;;;12.60;61.80;;;;;;4991136;28;89050;-40
2023/04/30 01:01:24;;;;;;;;;;;12.60;61.70;;;;;;4994252;28;88908;-39
2023/04/30 01:03:50;;;;;;;;;;;12.60;61.70;;;;;;4995548;28;87216;-39
2023/04/30 01:06:16;;;;;;;;;;;12.60;61.80;;;;;;4994398;28;87221;-39
2023/04/30 01:08:41;;;;;;;;;;;12.60;61.80;;;;;;4994833;28;91088;-39
2023/04/30 01:11:22;;;;;;;;;;;12.60;61.80;;;;;;4993651;28;87324;-40
2023/04/30 01:13:52;;;;;;;;;;;12.60;61.90;;;;;;4994997;28;88485;-39
2023/04/30 01:16:23;;;;;;;;;;;12.50;61.80;;;;;;4993426;28;89508;-39
2023/04/30 01:18:55;;;;;;;;;;;12.50;61.70;;;;;;4999452;28;87175;-39
2023/04/30 01:21:21;;;;;;;;;;;12.50;61.80;;;;;;4993731;28;89571;-39
2023/04/30 01:24:02;;;;;;;;;;;12.50;61.80;;;;;;4994982;28;87089;-38
2023/04/30 01:26:50;;;;;;;;;;;12.50;62.00;;;;;;4993680;28;89591;-39
2023/04/30 01:29:17;;;;;;;;;;;12.50;61.80;;;;;;4990505;28;89744;-39
2023/04/30 01:31:43;;;;;;;;;;;12.50;61.90;;;;;;4996032;28;86918;-39
2023/04/30 01:34:09;;;;;;;;;;;12.50;61.80;;;;;;4992865;28;88085;-38
2023/04/30 01:36:43;;;;;;;;;;;12.40;61.80;;;;;;4995190;28;88034;-38
2023/04/30 01:39:12;;;;;;;;;;;12.50;61.80;;;;;;4992873;28;87143;-39
2023/04/30 01:41:49;;;;;;;;;;;12.40;61.80;;;;;;4998683;28;88948;-39
2023/04/30 01:44:33;;;;;;;;;;;12.40;61.80;;;;;;4994245;28;87134;-39
2023/04/30 01:47:04;;;;;;;;;;;12.40;61.70;;;;;;4993442;28;87103;-39
2023/04/30 01:49:50;;;;;;;;;;;12.40;61.80;;;;;;4994373;28;89554;-39
2023/04/30 01:52:28;;;;;;;;;;;12.50;61.80;;;;;;4994156;28;86242;-39
2023/04/30 01:54:59;;;;;;;;;;;12.40;61.80;;;;;;4993122;28;88238;-39
2023/04/30 01:57:31;;;;;;;;;;;12.40;61.90;;;;;;4992229;28;89923;-39
2023/04/30 01:59:56;;;;;;;;;;;12.40;62.50;;;;;;4994045;28;88107;-39
2023/04/30 02:02:22;;;;;;;;;;;12.40;61.80;;;;;;4994206;28;89618;-39
2023/04/30 02:04:47;;;;;;;;;;;12.40;61.80;;;;;;4996374;28;89868;-39
2023/04/30 02:07:17;;;;;;;;;;;12.40;61.80;;;;;;4994943;28;88850;-38
2023/04/30 02:09:42;;;;;;;;;;;12.30;61.80;;;;;;4992156;28;88066;-39
2023/04/30 02:12:08;;;;;;;;;;;12.30;61.90;;;;;;4995100;28;87381;-39
2023/04/30 02:14:33;;;;;;;;;;;12.30;61.90;;;;;;4992061;28;88983;-39
2023/04/30 02:16:59;;;;;;;;;;;12.30;61.90;;;;;;4995348;28;88819;-39
2023/04/30 02:19:24;;;;;;;;;;;12.30;61.90;;;;;;4993174;28;87143;-39
2023/04/30 02:21:50;;;;;;;;;;;12.30;61.90;;;;;;4994246;28;89289;-39
2023/04/30 02:24:16;;;;;;;;;;;12.30;61.90;;;;;;4992989;28;90215;-39
2023/04/30 02:26:41;;;;;;;;;;;12.30;61.90;;;;;;4996545;28;87051;-39
2023/04/30 02:29:07;;;;;;;;;;;12.30;61.90;;;;;;4994098;28;88151;-38
2023/04/30 02:31:32;;;;;;;;;;;12.30;61.90;;;;;;4993011;28;87331;-39
2023/04/30 02:33:58;;;;;;;;;;;12.30;61.90;;;;;;4995160;28;89015;-38
2023/04/30 02:36:23;;;;;;;;;;;12.30;61.90;;;;;;4991505;28;89392;-40
2023/04/30 02:38:49;;;;;;;;;;;12.20;61.80;;;;;;4995760;28;87175;-39
2023/04/30 02:41:14;;;;;;;;;;;12.20;61.90;;;;;;4993021;28;87389;-39
2023/04/30 02:43:40;;;;;;;;;;;12.20;61.90;;;;;;4994283;28;89345;-39
2023/04/30 02:46:05;;;;;;;;;;;12.20;61.90;;;;;;4996007;28;87121;-39
2023/04/30 02:48:31;;;;;;;;;;;12.20;61.90;;;;;;4992887;28;90680;-39
2023/04/30 02:50:56;;;;;;;;;;;12.20;62.00;;;;;;4993325;28;86962;-39
2023/04/30 02:53:22;;;;;;;;;;;12.20;61.90;;;;;;4992789;28;87439;-39
2023/04/30 02:55:47;;;;;;;;;;;12.20;62.00;;;;;;4994106;28;88143;-39
2023/04/30 02:58:13;;;;;;;;;;;12.20;62.00;;;;;;4995425;28;87082;-39
2023/04/30 03:00:38;;;;;;;;;;;12.20;62.00;;;;;;4991922;28;88701;-39
2023/04/30 03:03:04;;;;;;;;;;;12.20;62.00;;;;;;4994794;28;87789;-39
2023/04/30 03:05:29;;;;;;;;;;;12.10;61.80;;;;;;4991831;28;86562;-39
2023/04/30 03:07:55;;;;;;;;;;;12.10;61.90;;;;;;4997060;28;88200;-39
2023/04/30 03:10:21;;;;;;;;;;;12.10;62.10;;;;;;4992219;28;87307;-39
2023/04/30 03:12:46;;;;;;;;;;;12.10;62.00;;;;;;4993194;28;89175;-39
2023/04/30 03:15:12;;;;;;;;;;;12.10;62.00;;;;;;4991953;28;89512;-39
2023/04/30 03:17:37;;;;;;;;;;;12.10;62.00;;;;;;4992685;28;87144;-39
2023/04/30 03:20:03;;;;;;;;;;;12.10;62.00;;;;;;4993752;28;89074;-39
2023/04/30 03:22:29;;;;;;;;;;;12.10;62.10;;;;;;4991493;28;89415;-39
2023/04/30 03:24:54;;;;;;;;;;;12.10;62.00;;;;;;4993084;28;87320;-39
2023/04/30 03:27:20;;;;;;;;;;;12.10;62.60;;;;;;4990994;28;88658;-39
2023/04/30 03:29:45;;;;;;;;;;;12.10;62.10;;;;;;4997544;28;88757;-39
2023/04/30 03:32:11;;;;;;;;;;;12.00;62.00;;;;;;4991575;28;88040;-39
2023/04/30 03:34:37;;;;;;;;;;;12.10;62.20;;;;;;4993927;28;88142;-39
2023/04/30 03:37:02;;;;;;;;;;;12.00;62.00;;;;;;4991402;28;88129;-39
2023/04/30 03:39:28;;;;;;;;;;;12.00;62.10;;;;;;4992955;28;89786;-40
2023/04/30 03:41:53;;;;;;;;;;;12.00;62.10;;;;;;4992400;28;89667;-39
2023/04/30 03:44:19;;;;;;;;;;;12.00;62.00;;;;;;4992170;28;87159;-39
2023/04/30 03:46:44;;;;;;;;;;;12.00;62.10;;;;;;4993230;28;88843;-39
2023/04/30 03:49:10;;;;;;;;;;;12.00;62.10;;;;;;4990891;28;88535;-38
2023/04/30 03:51:38;;;;;;;;;;;12.00;62.10;;;;;;4997118;28;87210;-39
2023/04/30 03:54:05;;;;;;;;;;;12.00;62.10;;;;;;4991211;28;86812;-39
2023/04/30 03:56:31;;;;;;;;;;;12.00;62.10;;;;;;4993532;28;87119;-39
2023/04/30 03:58:56;;;;;;;;;;;12.00;62.20;;;;;;4991807;28;89052;-39
2023/04/30 04:01:22;;;;;;;;;;;12.00;62.20;;;;;;4991743;28;90408;-38
2023/04/30 04:03:47;;;;;;;;;;;12.00;62.20;;;;;;4992343;28;87121;-40
2023/04/30 04:06:13;;;;;;;;;;;11.90;62.20;;;;;;4991718;28;88672;-39
2023/04/30 04:08:41;;;;;;;;;;;11.90;62.20;;;;;;4992605;28;88397;-38
2023/04/30 04:11:08;;;;;;;;;;;12.00;62.20;;;;;;4990711;28;87162;-38
2023/04/30 04:13:33;;;;;;;;;;;12.00;62.20;;;;;;4996721;28;87401;-38
2023/04/30 04:15:59;;;;;;;;;;;12.00;62.20;;;;;;4990767;28;87146;-39
2023/04/30 04:18:25;;;;;;;;;;;12.00;62.20;;;;;;4993851;28;88833;-39
2023/04/30 04:20:50;;;;;;;;;;;12.00;62.20;;;;;;4991113;28;88054;-38
2023/04/30 04:23:16;;;;;;;;;;;12.00;62.20;;;;;;4992291;28;87212;-39
2023/04/30 04:25:43;;;;;;;;;;;12.00;62.10;;;;;;4991485;28;89025;-39
2023/04/30 04:28:08;;;;;;;;;;;11.90;62.10;;;;;;4991153;28;89768;-39
2023/04/30 04:30:35;;;;;;;;;;;11.90;62.10;;;;;;4993006;28;87163;-39
2023/04/30 04:33:01;;;;;;;;;;;12.00;62.20;;;;;;4993016;28;88863;-39
2023/04/30 04:35:26;;;;;;;;;;;11.90;62.20;;;;;;4993204;28;87410;-38
2023/04/30 04:37:52;;;;;;;;;;;11.90;62.20;;;;;;4989940;28;88857;-39
2023/04/30 04:40:17;;;;;;;;;;;11.90;62.20;;;;;;4993098;28;88208;-39
2023/04/30 04:42:43;;;;;;;;;;;11.90;62.20;;;;;;4991398;28;86873;-39
2023/04/30 04:45:09;;;;;;;;;;;11.90;62.20;;;;;;4992531;28;88390;-39
2023/04/30 04:47:35;;;;;;;;;;;11.90;62.20;;;;;;4991073;28;91594;-39
2023/04/30 04:50:01;;;;;;;;;;;11.90;62.30;;;;;;4990798;28;88059;-39
2023/04/30 04:52:26;;;;;;;;;;;11.90;62.30;;;;;;4992045;28;89927;-39
2023/04/30 04:54:52;;;;;;;;;;;11.90;62.20;;;;;;4993113;28;89545;-39
2023/04/30 04:57:18;;;;;;;;;;;11.90;62.20;;;;;;4993459;28;87041;-39
2023/04/30 04:59:43;;;;;;;;;;;11.90;62.30;;;;;;4989417;28;89117;-39
2023/04/30 05:02:09;;;;;;;;;;;11.90;62.30;;;;;;4993535;28;87107;-38
2023/04/30 05:04:34;;;;;;;;;;;11.90;62.30;;;;;;4990509;28;88609;-39
2023/04/30 05:07:00;;;;;;;;;;;11.90;62.30;;;;;;4992461;28;88123;-39
2023/04/30 05:09:26;;;;;;;;;;;11.80;62.90;;;;;;4990986;28;87138;-39
2023/04/30 05:11:51;;;;;;;;;;;11.90;62.30;;;;;;4991934;28;89141;-39
2023/04/30 05:14:17;;;;;;;;;;;11.90;62.30;;;;;;4990329;28;88974;-39
2023/04/30 05:16:42;;;;;;;;;;;11.90;62.30;;;;;;4994417;28;87077;-39
2023/04/30 05:19:08;;;;;;;;;;;11.90;62.20;;;;;;4992029;28;89095;-38
2023/04/30 05:21:34;;;;;;;;;;;11.80;62.30;;;;;;4989850;28;87121;-39
2023/04/30 05:24:00;;;;;;;;;;;11.80;62.20;;;;;;4993199;28;89197;-39
2023/04/30 05:26:25;;;;;;;;;;;11.80;62.20;;;;;;4989404;28;89339;-39
2023/04/30 05:28:51;;;;;;;;;;;11.80;62.30;;;;;;4992583;28;87524;-39
2023/04/30 05:31:16;;;;;;;;;;;11.80;62.30;;;;;;4990771;28;88824;-39
2023/04/30 05:33:42;;;;;;;;;;;11.80;62.30;;;;;;4991983;28;88022;-39
2023/04/30 05:36:08;;;;;;;;;;;11.80;62.30;;;;;;4991065;28;87129;-39
2023/04/30 05:38:34;;;;;;;;;;;11.80;62.40;;;;;;4993271;28;88350;-39
2023/04/30 05:40:59;;;;;;;;;;;11.80;62.40;;;;;;4991619;28;87182;-39
2023/04/30 05:43:25;;;;;;;;;;;11.90;62.40;;;;;;4990250;28;88867;-39
2023/04/30 05:45:50;;;;;;;;;;;11.80;62.40;;;;;;4992136;28;88570;-39
2023/04/30 05:48:16;;;;;;;;;;;11.80;62.40;;;;;;4991127;28;87215;-39
2023/04/30 05:50:42;;;;;;;;;;;11.80;62.40;;;;;;4996291;28;88866;-39
2023/04/30 05:53:07;;;;;;;;;;;11.90;62.40;;;;;;4992504;28;89611;-39
2023/04/30 05:55:33;;;;;;;;;;;11.80;62.40;;;;;;4996034;28;86367;-39
2023/04/30 05:57:59;;;;;;;;;;;11.80;62.40;;;;;;4993732;28;88254;-38
2023/04/30 06:00:24;;;;;;;;;;;11.80;62.40;;;;;;4997155;28;89412;-38
2023/04/30 06:02:50;;;;;;;;;;;11.80;62.40;;;;;;4993718;28;88930;-39
2023/04/30 06:05:15;;;;;;;;;;;11.80;62.40;;;;;;4993396;28;89453;-39
2023/04/30 06:07:41;;;;;;;;;;;11.80;62.40;;;;;;4994615;28;87089;-39
2023/04/30 06:10:06;;;;;;;;;;;11.80;62.40;;;;;;4993267;28;87259;-39
2023/04/30 06:12:32;;;;;;;;;;;11.80;62.50;;;;;;4995380;28;87931;-39
2023/04/30 06:14:58;;;;;;;;;;;11.80;62.40;;;;;;4992088;28;87215;-38
2023/04/30 06:17:23;;;;;;;;;;;11.80;62.50;;;;;;4995843;28;88718;-39
2023/04/30 06:19:48;;;;;;;;;;;11.80;62.50;;;;;;4992901;28;88745;-38
2023/04/30 06:22:14;;;;;;;;;;;11.80;62.40;;;;;;4997900;28;87058;-39
2023/04/30 06:24:40;;;;;;;;;;;11.80;62.50;;;;;;4992987;28;89491;-39
2023/04/30 06:27:05;;;;;;;;;;;11.80;62.50;;;;;;4993653;28;88410;-39
2023/04/30 06:29:31;;;;;;;;;;;11.80;62.40;;;;;;4993775;28;89750;-39
2023/04/30 06:31:56;;;;;;;;;;;11.80;62.50;;;;;;4993099;28;87277;-40
2023/04/30 06:34:22;;;;;;;;;;;11.80;62.50;;;;;;4994497;28;87366;-39
2023/04/30 06:36:47;;;;;;;;;;;11.80;62.60;;;;;;4992800;28;87215;-38
2023/04/30 06:39:14;;;;;;;;;;;11.80;62.50;;;;;;4994953;28;89414;-39
2023/04/30 06:41:40;;;;;;;;;;;11.80;62.40;;;;;;4994790;28;87101;-39
2023/04/30 06:44:05;;;;;;;;;;;11.80;62.50;;;;;;4994957;28;88310;-38
2023/04/30 06:46:31;;;;;;;;;;;11.80;62.50;;;;;;4992890;28;87109;-39
2023/04/30 06:48:56;;;;;;;;;;;11.80;62.60;;;;;;4994478;28;87571;-39
2023/04/30 06:51:22;;;;;;;;;;;11.90;62.70;;;;;;4992268;28;90670;-39
2023/04/30 06:53:47;;;;;;;;;;;11.80;62.60;;;;;;4993512;28;87090;-39
2023/04/30 06:56:13;;;;;;;;;;;11.90;62.80;;;;;;4993786;28;89120;-39
2023/04/30 06:58:38;;;;;;;;;;;11.90;62.90;;;;;;4991980;28;89414;-39
2023/04/30 07:01:04;;;;;;;;;;;11.90;62.80;;;;;;4994540;28;86995;-39
2023/04/30 07:03:29;;;;;;;;;;;11.90;62.70;;;;;;4994312;28;88876;-39
2023/04/30 07:05:55;;;;;;;;;;;11.90;62.70;;;;;;4995088;28;87178;-39
2023/04/30 07:08:21;;;;;;;;;;;11.90;62.80;;;;;;4991747;28;88987;-39
2023/04/30 07:10:46;;;;;;;;;;;11.90;62.80;;;;;;4994082;28;89477;-39
2023/04/30 07:13:12;;;;;;;;;;;11.90;62.80;;;;;;4992148;28;87908;-39
2023/04/30 07:15:37;;;;;;;;;;;11.90;62.90;;;;;;4992641;28;89008;-39
2023/04/30 07:18:03;;;;;;;;;;;11.90;62.80;;;;;;4992660;28;89428;-39
2023/04/30 07:20:29;;;;;;;;;;;11.90;62.90;;;;;;4992678;28;87135;-39
2023/04/30 07:22:54;;;;;;;;;;;11.90;62.80;;;;;;4993814;28;87702;-39
2023/04/30 07:25:20;;;;;;;;;;;12.00;62.90;;;;;;4994469;28;89748;-39
2023/04/30 07:27:45;;;;;;;;;;;11.90;62.90;;;;;;4994458;28;87356;-39
2023/04/30 07:30:11;;;;;;;;;;;11.90;63.00;;;;;;4990521;28;89921;-39
2023/04/30 07:32:39;;;;;;;;;;;11.90;63.00;;;;;;4991469;28;86353;-39
2023/04/30 07:35:05;;;;;;;;;;;11.90;63.00;;;;;;4993978;28;88549;-38
2023/04/30 07:37:30;;;;;;;;;;;11.90;63.10;;;;;;4991544;28;89419;-39
2023/04/30 07:39:56;;;;;;;;;;;11.90;63.10;;;;;;4992189;28;88049;-39
2023/04/30 07:42:22;;;;;;;;;;;11.90;63.10;;;;;;4993084;28;88544;-39
2023/04/30 07:44:48;;;;;;;;;;;11.90;63.10;;;;;;4991696;28;89342;-39
2023/04/30 07:47:13;;;;;;;;;;;11.90;63.10;;;;;;4996560;28;87122;-39
2023/04/30 07:49:39;;;;;;;;;;;11.90;63.10;;;;;;4991079;28;89235;-39
2023/04/30 07:52:05;;;;;;;;;;;11.90;63.20;;;;;;4991284;28;87138;-39
2023/04/30 07:54:30;;;;;;;;;;;11.80;63.20;;;;;;4992791;28;88719;-39
2023/04/30 07:56:56;;;;;;;;;;;11.90;63.30;;;;;;4993105;28;88783;-39
2023/04/30 07:59:23;;;;;;;;;;;11.80;63.20;;;;;;4991402;28;87132;-39
2023/04/30 08:01:49;;;;;;;;;;;11.90;63.30;;;;;;4994123;28;89108;-39
2023/04/30 08:04:15;;;;;;;;;;;11.80;63.20;;;;;;4990198;28;89102;-39
2023/04/30 08:06:40;;;;;;;;;;;11.90;63.30;;;;;;4992980;28;87208;-39
2023/04/30 08:09:06;;;;;;;;;;;11.90;63.30;;;;;;4994899;28;87370;-39
2023/04/30 08:11:31;;;;;;;;;;;11.90;63.20;;;;;;4989734;28;87191;-39
2023/04/30 08:13:57;;;;;;;;;;;11.90;63.20;;;;;;4993448;28;87687;-39
2023/04/30 08:16:22;;;;;;;;;;;12.00;63.20;;;;;;4990207;28;89426;-38
2023/04/30 08:18:48;;;;;;;;;;;11.90;63.20;;;;;;4990809;28;87080;-39
2023/04/30 08:21:15;;;;;;;;;;;11.90;63.20;;;;;;4993766;28;88766;-39
2023/04/30 08:23:40;;;;;;;;;;;12.00;63.20;;;;;;4991585;28;89259;-39
2023/04/30 08:26:06;;;;;;;;;;;12.00;63.10;;;;;;4991786;28;87115;-39
2023/04/30 08:28:31;;;;;;;;;;;12.00;63.10;;;;;;4992354;28;88760;-38
2023/04/30 08:30:57;;;;;;;;;;;12.00;63.10;;;;;;4992819;28;89595;-39
2023/04/30 08:33:22;;;;;;;;;;;12.00;63.00;;;;;;4994126;28;87371;-38
2023/04/30 08:35:48;;;;;;;;;;;12.00;62.90;;;;;;4990634;28;89822;-39
2023/04/30 08:38:13;;;;;;;;;;;12.10;63.00;;;;;;4992296;28;87156;-39
2023/04/30 08:40:39;;;;;;;;;;;12.10;63.00;;;;;;4991926;28;89049;-39
2023/04/30 08:43:06;;;;;;;;;;;12.10;63.20;;;;;;4990741;28;89282;-39
2023/04/30 08:45:35;;;;;;;;;;;12.10;63.20;;;;;;4993610;28;86282;-39
2023/04/30 08:48:03;;;;;;;;;;;12.10;63.20;;;;;;4990685;28;88260;-39
2023/04/30 08:50:29;;;;;;;;;;;12.10;63.20;;;;;;4994799;28;89832;-38
2023/04/30 08:52:56;;;;;;;;;;;12.10;63.00;;;;;;4991676;28;88038;-39
2023/04/30 08:55:22;;;;;;;;;;;12.10;63.10;;;;;;4990521;28;89859;-39
2023/04/30 08:57:47;;;;;;;;;;;12.10;63.30;;;;;;4993472;28;88154;-39
2023/04/30 09:00:13;;;;;;;;;;;12.20;63.40;;;;;;4990453;28;89020;-39
2023/04/30 09:02:40;;;;;;;;;;;12.20;63.30;;;;;;4992627;28;88237;-39
2023/04/30 09:05:13;;;;;;;;;;;12.20;63.60;;;;;;4991285;28;87076;-39
2023/04/30 09:07:40;;;;;;;;;;;12.20;63.50;;;;;;4990360;28;88951;-39
2023/04/30 09:10:13;;;;;;;;;;;12.20;63.50;;;;;;4989982;28;88528;-39
2023/04/30 09:12:41;;;;;;;;;;;12.20;63.50;;;;;;4994608;28;87105;-39
2023/04/30 09:15:07;;;;;;;;;;;12.20;63.50;;;;;;4991510;28;88646;-38
2023/04/30 09:17:33;;;;;;;;;;;12.20;63.60;;;;;;4988658;28;88418;-41
2023/04/30 09:20:06;;;;;;;;;;;12.20;65.20;;;;;;4988433;28;88988;-40
2023/04/30 09:22:31;;;;;;;;;;;12.30;66.30;;;;;;4992185;28;89465;-38
2023/04/30 09:24:57;;;;;;;;;;;12.40;66.60;;;;;;4995805;28;87010;-41
2023/04/30 09:27:23;;;;;;;;;;;12.40;66.90;;;;;;4993851;28;87552;-40
2023/04/30 09:29:48;;;;;;;;;;;12.50;67.80;;;;;;4994969;28;87979;-43
2023/04/30 09:32:14;;;;;;;;;;;12.60;67.80;;;;;;4991691;28;87111;-39
2023/04/30 09:34:40;;;;;;;;;;;12.60;66.60;;;;;;4997392;28;86508;-39
2023/04/30 09:37:06;;;;;;;;;;;12.50;66.40;;;;;;4993720;28;87665;-39
2023/04/30 09:39:32;;;;;;;;;;;12.50;66.20;;;;;;4992971;28;87727;-39
2023/04/30 09:42:08;;;;;;;;;;;12.70;67.30;;;;;;4993942;28;89036;-38
2023/04/30 09:44:37;;;;;;;;;;;12.80;67.50;;;;;;4992645;28;87615;-37
2023/04/30 09:47:03;;;;;;;;;;;12.80;67.40;;;;;;4992614;28;89381;-38
2023/04/30 09:49:29;;;;;;;;;;;12.80;67.60;;;;;;4993607;28;89452;-38
2023/04/30 09:51:58;;;;;;;;;;;12.80;67.40;;;;;;4991248;28;87171;-37
2023/04/30 09:54:26;;;;;;;;;;;12.80;67.40;;;;;;4993750;28;87430;-38
2023/04/30 09:56:52;;;;;;;;;;;12.80;67.30;;;;;;4996233;28;87945;-37
2023/04/30 09:59:20;;;;;;;;;;;12.90;67.30;;;;;;4993061;28;87407;-36
2023/04/30 10:01:46;;;;;;;;;;;12.90;67.10;;;;;;4993947;28;88406;-37
2023/04/30 10:04:12;;;;;;;;;;;13.00;66.30;;;;;;4991892;28;87424;-39
2023/04/30 10:06:38;;;;;;;;;;;13.10;67.20;;;;;;4993524;28;88094;-36
2023/04/30 10:09:04;;;;;;;;;;;13.10;66.40;;;;;;4991562;28;88111;-36
2023/04/30 10:11:31;;;;;;;;;;;13.10;66.40;;;;;;4992544;28;86989;-39
2023/04/30 10:14:02;;;;;;;;;;;13.10;65.30;;;;;;4993936;28;88702;-46
2023/04/30 10:16:39;;;;;;;;;;;13.00;66.20;;;;;;4989959;28;89356;-44
2023/04/30 10:19:17;;;;;;;;;;;13.00;65.80;;;;;;4995000;28;87399;-46
2023/04/30 10:21:44;;;;;;;;;;;12.90;66.20;;;;;;4992105;28;87904;-46
2023/04/30 10:24:12;;;;;;;;;;;12.90;66.10;;;;;;4992977;28;86401;-46
2023/04/30 10:26:37;;;;;;;;;;;12.90;66.20;;;;;;4993532;28;87214;-44
2023/04/30 10:29:04;;;;;;;;;;;12.90;67.10;;;;;;4990858;28;88099;-46
2023/04/30 10:31:30;;;;;;;;;;;12.90;66.10;;;;;;4990162;28;88408;-45
2023/04/30 10:34:11;;;;;;;;;;;13.00;66.90;;;;;;4992009;28;89885;-44
2023/04/30 10:36:43;;;;;;;;;;;13.00;67.20;;;;;;4993745;28;88238;-44
2023/04/30 10:39:09;;;;;;;;;;;13.00;67.60;;;;;;4991568;28;87224;-46
2023/04/30 10:41:35;;;;;;;;;;;13.00;67.00;;;;;;4994638;28;88866;-45
2023/04/30 10:44:01;;;;;;;;;;;13.00;66.40;;;;;;4993677;28;87134;-42
2023/04/30 10:46:27;;;;;;;;;;;13.00;66.90;;;;;;4991590;28;88613;-42
2023/04/30 10:48:54;;;;;;;;;;;13.10;66.80;;;;;;4994374;28;87272;-44
2023/04/30 10:51:20;;;;;;;;;;;13.10;66.50;;;;;;4991266;28;87144;-45
2023/04/30 10:53:48;;;;;;;;;;;13.10;66.90;;;;;;4991481;28;88923;-43
2023/04/30 10:56:27;;;;;;;;;;;13.20;66.90;;;;;;4991601;28;89145;-43
2023/04/30 10:58:53;;;;;;;;;;;13.10;66.20;;;;;;4990784;28;87066;-42
2023/04/30 11:01:19;;;;;;;;;;;13.20;66.00;;;;;;4994274;28;87568;-41
2023/04/30 11:04:04;;;;;;;;;;;13.20;65.80;;;;;;4991906;28;87552;-47
2023/04/30 11:06:48;;;;;;;;;;;13.30;65.50;;;;;;4991295;28;88764;-41
2023/04/30 11:09:13;;;;;;;;;;;13.30;65.30;;;;;;4990001;28;87009;-43
2023/04/30 11:11:39;;;;;;;;;;;13.30;65.20;;;;;;4992210;28;87140;-42
2023/04/30 11:14:04;;;;;;;;;;;13.40;65.00;;;;;;4992868;28;87411;-43
2023/04/30 11:16:30;;;;;;;;;;;13.50;64.80;;;;;;4989855;28;88046;-43
2023/04/30 11:19:04;;;;;;;;;;;13.50;65.30;;;;;;4992680;28;87298;-43
2023/04/30 11:21:31;;;;;;;;;;;13.40;64.40;;;;;;4990963;28;87940;-43
2023/04/30 11:24:01;;;;;;;;;;;13.30;64.10;;;;;;4993975;28;89377;-43
2023/04/30 11:26:26;;;;;;;;;;;13.30;64.50;;;;;;4993489;28;87419;-43
2023/04/30 11:28:53;;;;;;;;;;;13.30;64.00;;;;;;4989043;28;88018;-43
2023/04/30 11:31:19;;;;;;;;;;;13.30;63.40;;;;;;4992089;28;87534;-43
2023/04/30 11:33:45;;;;;;;;;;;13.40;63.00;;;;;;4991039;28;87026;-43
2023/04/30 11:36:13;;;;;;;;;;;13.30;62.80;;;;;;4990835;28;88123;-43
2023/04/30 11:38:39;;;;;;;;;;;13.40;62.50;;;;;;4992573;28;86832;-43
2023/04/30 11:41:05;;;;;;;;;;;13.40;62.40;;;;;;4989711;28;88457;-43
2023/04/30 11:43:31;;;;;;;;;;;13.40;61.60;;;;;;4992022;28;87911;-43
2023/04/30 11:46:04;;;;;;;;;;;13.50;62.10;;;;;;4991428;28;88301;-43
2023/04/30 11:48:31;;;;;;;;;;;13.60;61.70;;;;;;4989848;28;88224;-43
2023/04/30 11:50:56;;;;;;;;;;;13.60;59.70;;;;;;4992760;28;87232;-43
2023/04/30 11:53:28;;;;;;;;;;;13.60;60.40;;;;;;4989494;28;87406;-43
2023/04/30 11:55:54;;;;;;;;;;;13.60;61.50;;;;;;4990723;28;89789;-43
2023/04/30 11:58:20;;;;;;;;;;;13.60;60.10;;;;;;4991872;28;87124;-43
2023/04/30 12:00:47;;;;;;;;;;;13.60;60.30;;;;;;4989676;28;88950;-43
2023/04/30 12:03:14;;;;;;;;;;;13.60;60.40;;;;;;4992531;28;86384;-43
2023/04/30 12:05:39;;;;;;;;;;;13.60;59.60;;;;;;4989385;28;87037;-43
2023/04/30 12:08:08;;;;;;;;;;;13.60;59.80;;;;;;4993498;28;87405;-43
2023/04/30 12:10:34;;;;;;;;;;;13.60;59.60;;;;;;4990249;28;88385;-43
2023/04/30 12:13:00;;;;;;;;;;;13.60;59.60;;;;;;4989025;28;89935;-43
2023/04/30 12:15:26;;;;;;;;;;;13.60;59.50;;;;;;4991600;28;88028;-43
2023/04/30 12:17:53;;;;;;;;;;;13.60;59.30;;;;;;4989847;28;87201;-44
2023/04/30 12:20:20;;;;;;;;;;;13.60;59.00;;;;;;4991274;28;89240;-41
2023/04/30 12:22:46;;;;;;;;;;;13.70;58.30;;;;;;4990667;28;89904;-44
2023/04/30 12:25:17;;;;;;;;;;;13.80;58.70;;;;;;4989506;28;87506;-46
2023/04/30 12:27:52;;;;;;;;;;;13.90;58.30;;;;;;4988839;28;88128;-44
2023/04/30 12:30:21;;;;;;;;;;;13.90;58.70;;;;;;4991873;28;89537;-43
2023/04/30 12:32:50;;;;;;;;;;;13.90;58.20;;;;;;4991400;28;88997;-43
2023/04/30 12:35:20;;;;;;;;;;;13.90;58.20;;;;;;4987954;28;89097;-44
2023/04/30 12:37:47;;;;;;;;;;;13.80;57.80;;;;;;4991420;28;87104;-43
2023/04/30 12:40:13;;;;;;;;;;;13.80;58.10;;;;;;4991341;28;87701;-43
2023/04/30 12:42:38;;;;;;;;;;;13.80;58.00;;;;;;4989601;28;87975;-50
2023/04/30 12:45:05;;;;;;;;;;;13.90;58.00;;;;;;4992403;28;87624;-39
2023/04/30 12:47:30;;;;;;;;;;;13.90;57.40;;;;;;4992364;28;87693;-44
2023/04/30 12:49:56;;;;;;;;;;;13.90;58.10;;;;;;4989715;28;87644;-43
2023/04/30 12:52:25;;;;;;;;;;;13.90;57.90;;;;;;4993538;28;86453;-41
2023/04/30 12:54:51;;;;;;;;;;;13.90;58.70;;;;;;4990634;28;89905;-42
2023/04/30 12:57:16;;;;;;;;;;;13.90;59.20;;;;;;4990189;28;87072;-45
2023/04/30 13:00:08;;;;;;;;;;;13.90;59.60;;;;;;4991629;28;88702;-44
2023/04/30 13:02:34;;;;;;;;;;;13.80;59.80;;;;;;4990660;28;88842;-40
2023/04/30 13:04:59;;;;;;;;;;;13.80;60.50;;;;;;4994256;28;87048;-40
2023/04/30 13:07:25;;;;;;;;;;;13.90;60.30;;;;;;4993529;28;87958;-43
2023/04/30 13:09:51;;;;;;;;;;;14.00;60.10;;;;;;4992782;28;88387;-41
2023/04/30 13:12:16;;;;;;;;;;;14.00;60.30;;;;;;4997866;28;87057;-38
2023/04/30 13:14:42;;;;;;;;;;;14.00;61.30;;;;;;4990997;28;89443;-40
2023/04/30 13:17:08;;;;;;;;;;;14.10;63.50;;;;;;4995664;28;86687;-43
2023/04/30 13:19:34;;;;;;;;;;;14.10;63.40;;;;;;4992106;28;88078;-43
2023/04/30 13:22:00;;;;;;;;;;;14.00;63.70;;;;;;4993365;28;88375;-42
2023/04/30 13:24:26;;;;;;;;;;;14.00;64.50;;;;;;4992807;28;87951;-41
2023/04/30 13:26:52;;;;;;;;;;;14.00;64.40;;;;;;4991875;28;89732;-43
2023/04/30 13:29:19;;;;;;;;;;;14.00;64.40;;;;;;4994797;28;88073;-42
2023/04/30 13:31:47;;;;;;;;;;;14.00;64.20;;;;;;4992083;28;87151;-41
2023/04/30 13:34:13;;;;;;;;;;;14.00;64.30;;;;;;4996529;28;89174;-45
2023/04/30 13:36:39;;;;;;;;;;;14.00;63.80;;;;;;4993589;28;87004;-42
2023/04/30 13:39:05;;;;;;;;;;;14.10;63.30;;;;;;4992078;28;87422;-44
2023/04/30 13:41:31;;;;;;;;;;;14.10;63.20;;;;;;4994229;28;87685;-43
2023/04/30 13:43:57;;;;;;;;;;;14.10;63.30;;;;;;4990929;28;87435;-43
2023/04/30 13:46:23;;;;;;;;;;;14.10;63.40;;;;;;4993214;28;87604;-42
2023/04/30 13:48:50;;;;;;;;;;;14.10;63.10;;;;;;4991246;28;88917;-46
2023/04/30 13:51:16;;;;;;;;;;;14.10;62.00;;;;;;4991810;28;87271;-47
2023/04/30 13:53:41;;;;;;;;;;;14.10;61.80;;;;;;4993422;28;88055;-46
2023/04/30 13:56:07;;;;;;;;;;;14.10;62.30;;;;;;4992989;28;88158;-41
2023/04/30 13:58:32;;;;;;;;;;;14.10;62.80;;;;;;4994303;28;87313;-44
2023/04/30 14:00:58;;;;;;;;;;;14.10;62.20;;;;;;4992035;28;88208;-45
2023/04/30 14:03:24;;;;;;;;;;;14.10;62.10;;;;;;4993261;28;87444;-42
2023/04/30 14:05:49;;;;;;;;;;;14.20;61.90;;;;;;4993741;28;87526;-42
2023/04/30 14:08:15;;;;;;;;;;;14.20;62.00;;;;;;4990070;28;89824;-43
2023/04/30 14:10:41;;;;;;;;;;;14.20;61.30;;;;;;4993627;28;87344;-43
2023/04/30 14:13:06;;;;;;;;;;;14.30;60.40;;;;;;4989798;28;88899;-44